Time,TemperatureF,DewpointF,PressureIn,WindDirection,WindDirectionDegrees,WindSpeedMPH,WindSpeedGustMPH,Humidity,HourlyPrecipIn,Conditions,Clouds,dailyrainin,SoftwareType,DateUTC
2013-05-31 00:02:00,75.9,63.7,30.34,WSW,247,3.0,3.0,66,0.00,,,0.00,meteohub,2013-05-31 04:02:00,
2013-05-31 00:12:00,75.9,64.2,30.33,South,180,2.0,4.0,67,0.00,,,0.00,meteohub,2013-05-31 04:12:00,
2013-05-31 00:22:00,75.9,64.6,30.33,SSW,202,2.0,4.0,68,0.00,,,0.00,meteohub,2013-05-31 04:22:00,
2013-05-31 00:32:00,75.9,64.6,30.33,South,180,2.0,3.0,68,0.00,,,0.00,meteohub,2013-05-31 04:32:00,
2013-05-31 00:42:00,75.0,64.2,30.33,South,180,1.0,3.0,69,0.00,,,0.00,meteohub,2013-05-31 04:42:00,
2013-05-31 00:52:00,75.0,64.6,30.33,South,180,1.0,2.0,70,0.00,,,0.00,meteohub,2013-05-31 04:52:00,
2013-05-31 01:02:00,75.0,64.9,30.32,SSW,202,1.0,2.0,71,0.00,,,0.00,meteohub,2013-05-31 05:02:00,
2013-05-31 01:12:00,73.9,64.4,30.33,SW,225,2.0,2.0,72,0.00,,,0.00,meteohub,2013-05-31 05:12:00,
2013-05-31 01:22:00,73.9,64.4,30.33,SW,225,1.0,3.0,72,0.00,,,0.00,meteohub,2013-05-31 05:22:00,
2013-05-31 01:32:00,73.9,64.8,30.32,SW,225,1.0,4.0,73,0.00,,,0.00,meteohub,2013-05-31 05:32:00,
2013-05-31 01:42:00,73.9,65.1,30.32,SW,225,2.0,4.0,74,0.00,,,0.00,meteohub,2013-05-31 05:42:00,
2013-05-31 01:52:00,73.9,65.5,30.32,West,270,0.0,2.0,75,0.00,,,0.00,meteohub,2013-05-31 05:52:00,
2013-05-31 02:02:00,73.0,64.6,30.32,SW,225,1.0,3.0,75,0.00,,,0.00,meteohub,2013-05-31 06:02:00,
2013-05-31 02:12:00,73.0,64.9,30.32,SW,225,0.0,2.0,76,0.00,,,0.00,meteohub,2013-05-31 06:12:00,
2013-05-31 02:22:00,73.0,65.5,30.32,WSW,247,1.0,2.0,77,0.00,,,0.00,meteohub,2013-05-31 06:22:00,
2013-05-31 02:32:00,72.0,64.8,30.31,SW,225,1.0,2.0,78,0.00,,,0.00,meteohub,2013-05-31 06:32:00,
2013-05-31 02:42:00,72.0,64.8,30.31,South,180,2.0,2.0,78,0.00,,,0.00,meteohub,2013-05-31 06:42:00,
2013-05-31 02:52:00,72.0,64.8,30.31,South,180,1.0,4.0,78,0.00,,,0.00,meteohub,2013-05-31 06:52:00,
2013-05-31 03:02:00,72.0,64.8,30.31,South,180,2.0,4.0,78,0.00,,,0.00,meteohub,2013-05-31 07:02:00,
2013-05-31 03:12:00,72.0,65.1,30.31,SSW,202,0.0,2.0,79,0.00,,,0.00,meteohub,2013-05-31 07:12:00,
2013-05-31 03:22:00,71.1,64.2,30.31,SSW,202,1.0,2.0,79,0.00,,,0.00,meteohub,2013-05-31 07:22:00,
2013-05-31 03:32:00,71.1,64.6,30.31,SSW,202,0.0,2.0,80,0.00,,,0.00,meteohub,2013-05-31 07:32:00,
2013-05-31 03:42:00,70.0,64.2,30.31,SSW,202,0.0,2.0,82,0.00,,,0.00,meteohub,2013-05-31 07:42:00,
2013-05-31 03:52:00,70.0,64.6,30.31,SSW,202,0.0,0.0,83,0.00,,,0.00,meteohub,2013-05-31 07:52:00,
2013-05-31 04:02:00,70.0,64.9,30.31,SSW,202,0.0,0.0,84,0.00,,,0.00,meteohub,2013-05-31 08:02:00,
2013-05-31 04:12:00,69.1,64.8,30.30,SSW,202,0.0,0.0,86,0.00,,,0.00,meteohub,2013-05-31 08:12:00,
2013-05-31 04:22:00,69.1,64.8,30.30,SSW,202,0.0,2.0,86,0.00,,,0.00,meteohub,2013-05-31 08:22:00,
2013-05-31 04:32:00,69.1,64.8,30.30,SSW,202,0.0,2.0,86,0.00,,,0.00,meteohub,2013-05-31 08:32:00,
2013-05-31 04:42:00,69.1,64.8,30.31,SSW,202,0.0,2.0,86,0.00,,,0.00,meteohub,2013-05-31 08:42:00,
2013-05-31 04:52:00,69.1,65.1,30.30,SSW,202,0.0,2.0,87,0.00,,,0.00,meteohub,2013-05-31 08:52:00,
2013-05-31 05:02:00,68.0,64.4,30.31,SSW,202,0.0,2.0,88,0.00,,,0.00,meteohub,2013-05-31 09:02:00,
2013-05-31 05:12:00,68.0,64.4,30.31,SSW,202,0.0,2.0,88,0.00,,,0.00,meteohub,2013-05-31 09:12:00,
2013-05-31 05:22:00,68.0,64.6,30.31,SSW,202,0.0,2.0,89,0.00,,,0.00,meteohub,2013-05-31 09:22:00,
2013-05-31 05:32:00,66.9,63.9,30.30,SSW,202,0.0,2.0,90,0.00,,,0.00,meteohub,2013-05-31 09:32:00,
2013-05-31 05:42:00,66.9,63.9,30.30,SSW,202,0.0,2.0,90,0.00,,,0.00,meteohub,2013-05-31 09:42:00,
2013-05-31 05:52:00,66.9,64.2,30.30,SSW,202,0.0,2.0,91,0.00,,,0.00,meteohub,2013-05-31 09:52:00,
2013-05-31 06:02:00,66.9,64.6,30.30,SSW,202,0.0,1.0,92,0.00,,,0.00,meteohub,2013-05-31 10:02:00,
2013-05-31 06:12:00,66.9,64.6,30.30,SSW,202,1.0,0.0,92,0.00,,,0.00,meteohub,2013-05-31 10:12:00,
2013-05-31 06:22:00,66.9,64.6,30.30,SSW,202,1.0,2.0,92,0.00,,,0.00,meteohub,2013-05-31 10:22:00,
2013-05-31 06:32:00,66.9,64.6,30.31,SSW,202,2.0,2.0,92,0.00,,,0.00,meteohub,2013-05-31 10:32:00,
2013-05-31 06:42:00,66.9,64.2,30.30,SSW,202,1.0,2.0,91,0.00,,,0.00,meteohub,2013-05-31 10:42:00,
2013-05-31 06:52:00,66.9,64.2,30.31,SSW,202,1.0,2.0,91,0.00,,,0.00,meteohub,2013-05-31 10:52:00,
2013-05-31 07:02:00,68.0,64.6,30.31,SSW,202,1.0,2.0,89,0.00,,,0.00,meteohub,2013-05-31 11:02:00,
2013-05-31 07:12:00,68.0,64.4,30.32,SSW,202,1.0,2.0,88,0.00,,,0.00,meteohub,2013-05-31 11:12:00,
2013-05-31 07:22:00,68.0,64.0,30.32,South,180,0.0,2.0,87,0.00,,,0.00,meteohub,2013-05-31 11:22:00,
2013-05-31 07:32:00,69.1,64.8,30.32,South,180,2.0,2.0,86,0.00,,,0.00,meteohub,2013-05-31 11:32:00,
2013-05-31 07:42:00,70.0,64.6,30.33,South,180,1.0,2.0,83,0.00,,,0.00,meteohub,2013-05-31 11:42:00,
2013-05-31 07:52:00,71.1,64.6,30.33,South,180,1.0,2.0,80,0.00,,,0.00,meteohub,2013-05-31 11:52:00,
2013-05-31 08:02:00,72.0,64.4,30.34,South,180,1.0,2.0,77,0.00,,,0.00,meteohub,2013-05-31 12:02:00,
2013-05-31 08:12:00,73.9,65.5,30.34,South,180,0.0,3.0,75,0.00,,,0.00,meteohub,2013-05-31 12:12:00,
2013-05-31 08:22:00,75.0,64.6,30.36,South,180,2.0,2.0,70,0.00,,,0.00,meteohub,2013-05-31 12:22:00,
2013-05-31 08:32:00,75.9,63.7,30.36,South,180,0.0,3.0,66,0.00,,,0.00,meteohub,2013-05-31 12:32:00,
2013-05-31 08:42:00,78.1,65.3,30.36,SW,225,1.0,3.0,65,0.00,,,0.00,meteohub,2013-05-31 12:42:00,
2013-05-31 08:52:00,79.0,64.4,30.37,SW,225,0.0,2.0,61,0.00,,,0.00,meteohub,2013-05-31 12:52:00,
2013-05-31 09:02:00,79.0,63.9,30.37,SSW,202,2.0,2.0,60,0.00,,,0.00,meteohub,2013-05-31 13:02:00,
2013-05-31 09:12:00,79.0,63.9,30.37,West,270,2.0,4.0,60,0.00,,,0.00,meteohub,2013-05-31 13:12:00,
2013-05-31 09:22:00,80.1,63.9,30.38,SW,225,0.0,4.0,58,0.00,,,0.00,meteohub,2013-05-31 13:22:00,
2013-05-31 09:32:00,81.0,63.9,30.38,SW,225,1.0,2.0,56,0.00,,,0.00,meteohub,2013-05-31 13:32:00,
2013-05-31 09:42:00,82.0,63.7,30.38,SW,225,1.0,3.0,54,0.00,,,0.00,meteohub,2013-05-31 13:42:00,
2013-05-31 09:52:00,82.0,64.2,30.38,SW,225,1.0,3.0,55,0.00,,,0.00,meteohub,2013-05-31 13:52:00,
2013-05-31 10:02:00,82.9,64.0,30.38,SW,225,0.0,5.0,53,0.00,,,0.00,meteohub,2013-05-31 14:02:00,
2013-05-31 10:12:00,82.9,62.4,30.38,SE,135,1.0,2.0,50,0.00,,,0.00,meteohub,2013-05-31 14:12:00,
2013-05-31 10:22:00,82.9,63.0,30.38,SSW,202,2.0,3.0,51,0.00,,,0.00,meteohub,2013-05-31 14:22:00,
2013-05-31 10:32:00,82.9,63.0,30.39,South,180,0.0,4.0,51,0.00,,,0.00,meteohub,2013-05-31 14:32:00,
2013-05-31 10:42:00,84.9,63.7,30.39,SE,135,0.0,4.0,49,0.00,,,0.00,meteohub,2013-05-31 14:42:00,
2013-05-31 10:52:00,84.9,63.0,30.39,North,0,2.0,2.0,48,0.00,,,0.00,meteohub,2013-05-31 14:52:00,
2013-05-31 11:02:00,84.9,62.4,30.39,South,180,2.0,5.0,47,0.00,,,0.00,meteohub,2013-05-31 15:02:00,
2013-05-31 11:12:00,84.9,61.2,30.39,South,180,2.0,3.0,45,0.00,,,0.00,meteohub,2013-05-31 15:12:00,
2013-05-31 11:22:00,86.0,62.8,30.39,East,90,0.0,3.0,46,0.00,,,0.00,meteohub,2013-05-31 15:22:00,
2013-05-31 11:32:00,87.1,61.2,30.39,SW,225,2.0,2.0,42,0.00,,,0.00,meteohub,2013-05-31 15:32:00,
2013-05-31 11:42:00,87.1,62.6,30.39,SW,225,1.0,3.0,44,0.00,,,0.00,meteohub,2013-05-31 15:42:00,
2013-05-31 11:52:00,87.1,62.6,30.39,WSW,247,1.0,5.0,44,0.00,,,0.00,meteohub,2013-05-31 15:52:00,
2013-05-31 12:02:00,87.1,61.9,30.39,NW,315,0.0,4.0,43,0.00,,,0.00,meteohub,2013-05-31 16:02:00,
2013-05-31 12:12:00,88.0,61.3,30.38,SW,225,1.0,4.0,41,0.00,,,0.00,meteohub,2013-05-31 16:12:00,
2013-05-31 12:22:00,88.0,61.3,30.38,West,270,2.0,6.0,41,0.00,,,0.00,meteohub,2013-05-31 16:22:00,
2013-05-31 12:32:00,88.0,60.6,30.38,SE,135,1.0,4.0,40,0.00,,,0.00,meteohub,2013-05-31 16:32:00,
2013-05-31 12:42:00,89.1,62.2,30.38,SE,135,0.0,4.0,41,0.00,,,0.00,meteohub,2013-05-31 16:42:00,
2013-05-31 12:52:00,90.0,61.7,30.38,South,180,1.0,2.0,39,0.00,,,0.00,meteohub,2013-05-31 16:52:00,
2013-05-31 13:02:00,89.1,60.8,30.38,South,180,0.0,4.0,39,0.00,,,0.00,meteohub,2013-05-31 17:02:00,
2013-05-31 13:12:00,89.1,61.5,30.38,SSW,202,2.0,6.0,40,0.00,,,0.00,meteohub,2013-05-31 17:12:00,
2013-05-31 13:22:00,90.0,63.1,30.38,South,180,1.0,5.0,41,0.00,,,0.00,meteohub,2013-05-31 17:22:00,
2013-05-31 13:32:00,90.0,63.1,30.37,SE,135,1.0,7.0,41,0.00,,,0.00,meteohub,2013-05-31 17:32:00,
2013-05-31 13:42:00,91.0,63.3,30.37,SW,225,1.0,7.0,40,0.00,,,0.00,meteohub,2013-05-31 17:42:00,
2013-05-31 13:52:00,90.0,61.7,30.36,South,180,2.0,4.0,39,0.00,,,0.00,meteohub,2013-05-31 17:52:00,
2013-05-31 14:02:00,90.0,61.7,30.36,SSE,157,1.0,7.0,39,0.00,,,0.00,meteohub,2013-05-31 18:02:00,
2013-05-31 14:12:00,91.0,62.6,30.36,SE,135,3.0,5.0,39,0.00,,,0.00,meteohub,2013-05-31 18:12:00,
2013-05-31 14:22:00,91.0,61.9,30.36,South,180,2.0,4.0,38,0.00,,,0.00,meteohub,2013-05-31 18:22:00,
2013-05-31 14:32:00,91.9,62.8,30.36,SE,135,0.0,6.0,38,0.00,,,0.00,meteohub,2013-05-31 18:32:00,
2013-05-31 14:42:00,93.0,63.0,30.36,South,180,2.0,6.0,37,0.00,,,0.00,meteohub,2013-05-31 18:42:00,
2013-05-31 14:52:00,91.9,63.5,30.36,South,180,0.0,4.0,39,0.00,,,0.00,meteohub,2013-05-31 18:52:00,
2013-05-31 15:02:00,91.9,63.5,30.35,South,180,2.0,5.0,39,0.00,,,0.00,meteohub,2013-05-31 19:02:00,
2013-05-31 15:12:00,91.0,61.9,30.35,SE,135,1.0,6.0,38,0.00,,,0.00,meteohub,2013-05-31 19:12:00,
2013-05-31 15:22:00,91.9,61.2,30.35,South,180,1.0,6.0,36,0.00,,,0.00,meteohub,2013-05-31 19:22:00,
2013-05-31 15:32:00,93.0,63.0,30.35,SE,135,0.0,4.0,37,0.00,,,0.00,meteohub,2013-05-31 19:32:00,
2013-05-31 15:42:00,91.9,62.8,30.34,South,180,7.0,7.0,38,0.00,,,0.00,meteohub,2013-05-31 19:42:00,
2013-05-31 15:52:00,93.9,63.0,30.34,SE,135,1.0,11.0,36,0.00,,,0.00,meteohub,2013-05-31 19:52:00,
2013-05-31 16:02:00,93.0,62.1,30.34,South,180,1.0,11.0,36,0.00,,,0.00,meteohub,2013-05-31 20:02:00,
2013-05-31 16:12:00,93.0,60.4,30.34,South,180,1.0,6.0,34,0.00,,,0.00,meteohub,2013-05-31 20:12:00,
2013-05-31 16:22:00,93.0,60.4,30.33,South,180,1.0,6.0,34,0.00,,,0.00,meteohub,2013-05-31 20:22:00,
2013-05-31 16:32:00,93.9,63.0,30.32,SE,135,2.0,6.0,36,0.00,,,0.00,meteohub,2013-05-31 20:32:00,
2013-05-31 16:42:00,93.0,62.1,30.32,South,180,0.0,5.0,36,0.00,,,0.00,meteohub,2013-05-31 20:42:00,
2013-05-31 16:52:00,93.0,62.1,30.32,SW,225,1.0,7.0,36,0.00,,,0.00,meteohub,2013-05-31 20:52:00,
2013-05-31 17:02:00,93.0,62.1,30.31,South,180,1.0,6.0,36,0.00,,,0.00,meteohub,2013-05-31 21:02:00,
2013-05-31 17:12:00,93.0,60.4,30.32,SE,135,1.0,4.0,34,0.00,,,0.00,meteohub,2013-05-31 21:12:00,
2013-05-31 17:22:00,91.9,62.8,30.31,South,180,2.0,6.0,38,0.00,,,0.00,meteohub,2013-05-31 21:22:00,
2013-05-31 17:32:00,91.9,61.9,30.30,West,270,4.0,7.0,37,0.00,,,0.00,meteohub,2013-05-31 21:32:00,
2013-05-31 17:42:00,91.0,61.2,30.30,South,180,1.0,7.0,37,0.00,,,0.00,meteohub,2013-05-31 21:42:00,
2013-05-31 17:52:00,91.0,61.9,30.30,SSW,202,2.0,6.0,38,0.00,,,0.00,meteohub,2013-05-31 21:52:00,
2013-05-31 18:02:00,91.0,60.4,30.30,South,180,1.0,4.0,36,0.00,,,0.00,meteohub,2013-05-31 22:02:00,
2013-05-31 18:12:00,91.9,61.9,30.30,SW,225,4.0,5.0,37,0.00,,,0.00,meteohub,2013-05-31 22:12:00,
2013-05-31 18:22:00,91.9,61.9,30.30,South,180,1.0,6.0,37,0.00,,,0.00,meteohub,2013-05-31 22:22:00,
2013-05-31 18:32:00,91.0,61.2,30.30,SE,135,1.0,9.0,37,0.00,,,0.00,meteohub,2013-05-31 22:32:00,
2013-05-31 18:42:00,90.0,60.3,30.29,South,180,1.0,9.0,37,0.00,,,0.00,meteohub,2013-05-31 22:42:00,
2013-05-31 18:52:00,89.1,59.4,30.29,SW,225,2.0,4.0,37,0.00,,,0.00,meteohub,2013-05-31 22:52:00,
2013-05-31 19:02:00,87.1,59.9,30.28,South,180,2.0,7.0,40,0.00,,,0.00,meteohub,2013-05-31 23:02:00,
2013-05-31 19:12:00,86.0,59.5,30.28,South,180,2.0,7.0,41,0.00,,,0.00,meteohub,2013-05-31 23:12:00,
2013-05-31 19:22:00,86.0,60.3,30.28,South,180,2.0,5.0,42,0.00,,,0.00,meteohub,2013-05-31 23:22:00,
2013-05-31 19:32:00,84.9,59.9,30.28,South,180,2.0,4.0,43,0.00,,,0.00,meteohub,2013-05-31 23:32:00,
2013-05-31 19:42:00,84.0,60.4,30.28,SW,225,2.0,6.0,45,0.00,,,0.00,meteohub,2013-05-31 23:42:00,
2013-05-31 19:52:00,84.0,61.0,30.27,South,180,2.0,4.0,46,0.00,,,0.00,meteohub,2013-05-31 23:52:00,
2013-05-31 20:02:00,82.9,60.1,30.27,SSW,202,1.0,6.0,46,0.00,,,0.00,meteohub,2013-06-01 00:02:00,
2013-05-31 20:12:00,82.9,60.6,30.27,South,180,1.0,4.0,47,0.00,,,0.00,meteohub,2013-06-01 00:12:00,
2013-05-31 20:22:00,82.0,60.4,30.27,South,180,2.0,6.0,48,0.00,,,0.00,meteohub,2013-06-01 00:22:00,
2013-05-31 20:32:00,82.0,60.4,30.26,SSE,157,0.0,4.0,48,0.00,,,0.00,meteohub,2013-06-01 00:32:00,
2013-05-31 20:42:00,82.0,61.0,30.26,SSW,202,1.0,2.0,49,0.00,,,0.00,meteohub,2013-06-01 00:42:00,
2013-05-31 20:52:00,81.0,60.6,30.26,SSW,202,1.0,2.0,50,0.00,,,0.00,meteohub,2013-06-01 00:52:00,
2013-05-31 21:02:00,81.0,61.2,30.26,South,180,3.0,4.0,51,0.00,,,0.00,meteohub,2013-06-01 01:02:00,
2013-05-31 21:12:00,80.1,60.8,30.26,SSW,202,1.0,3.0,52,0.00,,,0.00,meteohub,2013-06-01 01:12:00,
2013-05-31 21:22:00,80.1,60.8,30.26,SW,225,0.0,2.0,52,0.00,,,0.00,meteohub,2013-06-01 01:22:00,
2013-05-31 21:32:00,80.1,61.3,30.26,South,180,1.0,2.0,53,0.00,,,0.00,meteohub,2013-06-01 01:32:00,
2013-05-31 21:42:00,79.0,61.0,30.26,South,180,1.0,2.0,54,0.00,,,0.00,meteohub,2013-06-01 01:42:00,
2013-05-31 21:52:00,79.0,61.5,30.26,South,180,0.0,2.0,55,0.00,,,0.00,meteohub,2013-06-01 01:52:00,
2013-05-31 22:02:00,79.0,61.9,30.26,South,180,2.0,2.0,56,0.00,,,0.00,meteohub,2013-06-01 02:02:00,
2013-05-31 22:12:00,79.0,61.9,30.26,South,180,2.0,2.0,56,0.00,,,0.00,meteohub,2013-06-01 02:12:00,
2013-05-31 22:22:00,79.0,61.9,30.26,SSW,202,2.0,2.0,56,0.00,,,0.00,meteohub,2013-06-01 02:22:00,
2013-05-31 22:32:00,78.1,61.5,30.26,SE,135,1.0,4.0,57,0.00,,,0.00,meteohub,2013-06-01 02:32:00,
2013-05-31 22:42:00,78.1,61.5,30.26,South,180,2.0,4.0,57,0.00,,,0.00,meteohub,2013-06-01 02:42:00,
2013-05-31 22:52:00,78.1,62.1,30.26,South,180,1.0,2.0,58,0.00,,,0.00,meteohub,2013-06-01 02:52:00,
2013-05-31 23:02:00,78.1,62.1,30.26,South,180,2.0,2.0,58,0.00,,,0.00,meteohub,2013-06-01 03:02:00,
2013-05-31 23:12:00,78.1,62.6,30.25,South,180,2.0,2.0,59,0.00,,,0.00,meteohub,2013-06-01 03:12:00,
2013-05-31 23:22:00,78.1,63.1,30.25,SW,225,1.0,2.0,60,0.00,,,0.00,meteohub,2013-06-01 03:22:00,
2013-05-31 23:32:00,77.0,62.6,30.25,South,180,1.0,2.0,61,0.00,,,0.00,meteohub,2013-06-01 03:32:00,
2013-05-31 23:42:00,77.0,63.0,30.25,South,180,1.0,2.0,62,0.00,,,0.00,meteohub,2013-06-01 03:42:00,
2013-05-31 23:52:00,77.0,63.5,30.25,SW,225,2.0,2.0,63,0.00,,,0.00,meteohub,2013-06-01 03:52:00,